sensor_id;sensor_type;location;lat;lon;timestamp;pressure;altitude;pressure_sealevel;temperature;humidity
54270;BME280;40181;51.560;13.000;2023-03-14T00:02:05;98494.72;;;10.43;100.00
54270;BME280;40181;51.560;13.000;2023-03-14T00:04:36;98502.47;;;10.49;100.00
54270;BME280;40181;51.560;13.000;2023-03-14T00:07:05;98493.88;;;10.40;100.00
54270;BME280;40181;51.560;13.000;2023-03-14T00:09:34;98471.91;;;10.45;100.00
54270;BME280;40181;51.560;13.000;2023-03-14T00:12:04;98471.22;;;10.35;100.00
54270;BME280;40181;51.560;13.000;2023-03-14T00:14:34;98464.03;;;10.45;100.00
54270;BME280;40181;51.560;13.000;2023-03-14T00:17:03;98445.16;;;10.24;100.00
54270;BME280;40181;51.560;13.000;2023-03-14T00:19:32;98437.84;;;10.41;100.00
54270;BME280;40181;51.560;13.000;2023-03-14T00:22:03;98439.66;;;10.37;100.00
54270;BME280;40181;51.560;13.000;2023-03-14T00:24:32;98427.53;;;10.30;100.00
54270;BME280;40181;51.560;13.000;2023-03-14T00:27:02;98418.84;;;10.29;100.00
54270;BME280;40181;51.560;13.000;2023-03-14T00:29:31;98404.63;;;10.38;100.00
54270;BME280;40181;51.560;13.000;2023-03-14T00:32:00;98410.06;;;10.30;100.00
54270;BME280;40181;51.560;13.000;2023-03-14T00:34:29;98414.22;;;10.41;100.00
54270;BME280;40181;51.560;13.000;2023-03-14T00:36:58;98394.06;;;10.43;100.00
54270;BME280;40181;51.560;13.000;2023-03-14T00:39:30;98399.38;;;10.38;100.00
54270;BME280;40181;51.560;13.000;2023-03-14T00:41:59;98402.00;;;10.40;100.00
54270;BME280;40181;51.560;13.000;2023-03-14T00:44:28;98409.94;;;10.36;100.00
54270;BME280;40181;51.560;13.000;2023-03-14T00:46:58;98406.28;;;10.45;100.00
54270;BME280;40181;51.560;13.000;2023-03-14T00:49:27;98413.13;;;10.54;100.00
54270;BME280;40181;51.560;13.000;2023-03-14T00:51:56;98424.53;;;10.51;100.00
54270;BME280;40181;51.560;13.000;2023-03-14T00:54:26;98430.72;;;10.47;100.00
54270;BME280;40181;51.560;13.000;2023-03-14T00:56:58;98464.84;;;10.47;100.00
54270;BME280;40181;51.560;13.000;2023-03-14T00:59:27;98475.50;;;10.40;100.00
54270;BME280;40181;51.560;13.000;2023-03-14T01:01:56;98466.50;;;10.53;100.00
54270;BME280;40181;51.560;13.000;2023-03-14T01:04:25;98469.06;;;10.56;100.00
54270;BME280;40181;51.560;13.000;2023-03-14T01:06:55;98467.19;;;10.63;100.00
54270;BME280;40181;51.560;13.000;2023-03-14T01:09:24;98470.72;;;10.60;100.00
54270;BME280;40181;51.560;13.000;2023-03-14T01:11:53;98476.84;;;10.61;100.00
54270;BME280;40181;51.560;13.000;2023-03-14T01:14:25;98473.44;;;10.56;100.00
54270;BME280;40181;51.560;13.000;2023-03-14T01:16:54;98469.03;;;10.58;100.00
54270;BME280;40181;51.560;13.000;2023-03-14T01:19:26;98479.63;;;10.53;100.00
54270;BME280;40181;51.560;13.000;2023-03-14T01:21:55;98481.19;;;10.63;100.00
54270;BME280;40181;51.560;13.000;2023-03-14T01:24:24;98498.72;;;10.61;100.00
54270;BME280;40181;51.560;13.000;2023-03-14T01:26:53;98488.81;;;10.74;100.00
54270;BME280;40181;51.560;13.000;2023-03-14T01:29:26;98497.78;;;10.64;100.00
54270;BME280;40181;51.560;13.000;2023-03-14T01:31:55;98503.91;;;10.64;100.00
54270;BME280;40181;51.560;13.000;2023-03-14T01:34:24;98505.56;;;10.69;100.00
54270;BME280;40181;51.560;13.000;2023-03-14T01:36:53;98508.16;;;10.72;100.00
54270;BME280;40181;51.560;13.000;2023-03-14T01:39:22;98496.78;;;10.70;100.00
54270;BME280;40181;51.560;13.000;2023-03-14T01:41:51;98500.41;;;10.65;100.00
54270;BME280;40181;51.560;13.000;2023-03-14T01:44:20;98499.66;;;10.59;100.00
54270;BME280;40181;51.560;13.000;2023-03-14T01:46:51;98495.94;;;10.69;100.00
54270;BME280;40181;51.560;13.000;2023-03-14T01:49:24;98493.47;;;10.61;100.00
54270;BME280;40181;51.560;13.000;2023-03-14T01:51:57;98489.81;;;10.69;100.00
54270;BME280;40181;51.560;13.000;2023-03-14T01:54:32;98493.44;;;10.63;100.00
54270;BME280;40181;51.560;13.000;2023-03-14T01:57:05;98488.34;;;10.55;100.00
54270;BME280;40181;51.560;13.000;2023-03-14T01:59:37;98483.09;;;10.55;100.00
54270;BME280;40181;51.560;13.000;2023-03-14T02:02:12;98476.84;;;10.62;99.66
54270;BME280;40181;51.560;13.000;2023-03-14T02:04:42;98485.53;;;10.64;99.27
54270;BME280;40181;51.560;13.000;2023-03-14T02:07:16;98485.63;;;10.60;98.83
54270;BME280;40181;51.560;13.000;2023-03-14T02:09:48;98471.50;;;10.65;97.87
54270;BME280;40181;51.560;13.000;2023-03-14T02:12:18;98458.31;;;10.69;97.71
54270;BME280;40181;51.560;13.000;2023-03-14T02:14:47;98455.69;;;10.69;96.71
54270;BME280;40181;51.560;13.000;2023-03-14T02:17:19;98454.78;;;10.70;96.05
54270;BME280;40181;51.560;13.000;2023-03-14T02:19:59;98462.72;;;10.67;96.33
54270;BME280;40181;51.560;13.000;2023-03-14T02:22:42;98446.16;;;10.64;96.07
54270;BME280;40181;51.560;13.000;2023-03-14T02:25:17;98447.75;;;10.72;95.75
54270;BME280;40181;51.560;13.000;2023-03-14T02:27:52;98437.34;;;10.67;95.98
54270;BME280;40181;51.560;13.000;2023-03-14T02:30:24;98435.56;;;10.68;95.83
54270;BME280;40181;51.560;13.000;2023-03-14T02:32:59;98441.72;;;10.67;95.97
54270;BME280;40181;51.560;13.000;2023-03-14T02:35:35;98442.59;;;10.67;95.69
54270;BME280;40181;51.560;13.000;2023-03-14T02:38:15;98438.22;;;10.66;96.10
54270;BME280;40181;51.560;13.000;2023-03-14T02:40:48;98429.56;;;10.62;96.03
54270;BME280;40181;51.560;13.000;2023-03-14T02:43:20;98428.00;;;10.52;96.07
54270;BME280;40181;51.560;13.000;2023-03-14T02:45:50;98413.06;;;10.56;95.92
54270;BME280;40181;51.560;13.000;2023-03-14T02:48:23;98421.75;;;10.58;96.10
54270;BME280;40181;51.560;13.000;2023-03-14T02:50:55;98416.59;;;10.55;95.73
54270;BME280;40181;51.560;13.000;2023-03-14T02:53:27;98401.75;;;10.52;95.98
54270;BME280;40181;51.560;13.000;2023-03-14T02:55:57;98401.06;;;10.44;95.67
54270;BME280;40181;51.560;13.000;2023-03-14T02:58:30;98392.16;;;10.51;95.42
54270;BME280;40181;51.560;13.000;2023-03-14T03:00:59;98407.22;;;10.41;95.52
54270;BME280;40181;51.560;13.000;2023-03-14T03:03:28;98422.16;;;10.37;95.73
54270;BME280;40181;51.560;13.000;2023-03-14T03:05:57;98410.75;;;10.40;95.65
54270;BME280;40181;51.560;13.000;2023-03-14T03:08:28;98397.38;;;10.52;95.24
54270;BME280;40181;51.560;13.000;2023-03-14T03:10:57;98396.91;;;10.32;95.79
54270;BME280;40181;51.560;13.000;2023-03-14T03:13:29;98395.03;;;10.37;95.76
54270;BME280;40181;51.560;13.000;2023-03-14T03:15:59;98387.22;;;10.35;95.96
54270;BME280;40181;51.560;13.000;2023-03-14T03:18:28;98397.88;;;10.26;96.15
54270;BME280;40181;51.560;13.000;2023-03-14T03:20:59;98387.34;;;10.28;96.39
54270;BME280;40181;51.560;13.000;2023-03-14T03:23:29;98390.00;;;10.26;96.07
54270;BME280;40181;51.560;13.000;2023-03-14T03:25:58;98397.03;;;10.24;95.85
54270;BME280;40181;51.560;13.000;2023-03-14T03:28:30;98397.94;;;10.24;95.69
54270;BME280;40181;51.560;13.000;2023-03-14T03:31:06;98398.78;;;10.25;96.02
54270;BME280;40181;51.560;13.000;2023-03-14T03:33:36;98431.25;;;10.19;95.47
54270;BME280;40181;51.560;13.000;2023-03-14T03:36:07;98427.63;;;10.25;95.64
54270;BME280;40181;51.560;13.000;2023-03-14T03:38:37;98433.88;;;10.19;95.68
54270;BME280;40181;51.560;13.000;2023-03-14T03:41:07;98423.53;;;10.13;95.34
54270;BME280;40181;51.560;13.000;2023-03-14T03:43:39;98420.00;;;10.14;95.15
54270;BME280;40181;51.560;13.000;2023-03-14T03:46:08;98400.66;;;10.20;95.10
54270;BME280;40181;51.560;13.000;2023-03-14T03:48:38;98400.81;;;10.10;94.76
54270;BME280;40181;51.560;13.000;2023-03-14T03:51:07;98398.16;;;10.12;94.15
54270;BME280;40181;51.560;13.000;2023-03-14T03:53:39;98393.69;;;10.17;93.95
54270;BME280;40181;51.560;13.000;2023-03-14T03:56:09;98392.88;;;10.14;94.04
54270;BME280;40181;51.560;13.000;2023-03-14T03:58:40;98385.56;;;10.30;93.19
54270;BME280;40181;51.560;13.000;2023-03-14T04:01:10;98380.41;;;10.25;92.95
54270;BME280;40181;51.560;13.000;2023-03-14T04:03:39;98377.50;;;10.39;92.46
54270;BME280;40181;51.560;13.000;2023-03-14T04:06:10;98370.09;;;10.16;93.05
54270;BME280;40181;51.560;13.000;2023-03-14T04:08:40;98374.34;;;10.21;92.16
54270;BME280;40181;51.560;13.000;2023-03-14T04:11:09;98373.50;;;10.21;92.00
54270;BME280;40181;51.560;13.000;2023-03-14T04:13:41;98381.38;;;10.21;91.50
54270;BME280;40181;51.560;13.000;2023-03-14T04:16:14;98384.03;;;10.19;91.46
54270;BME280;40181;51.560;13.000;2023-03-14T04:18:45;98382.09;;;10.28;91.64
54270;BME280;40181;51.560;13.000;2023-03-14T04:21:14;98387.44;;;10.23;91.73
54270;BME280;40181;51.560;13.000;2023-03-14T04:23:44;98390.00;;;10.26;91.80
54270;BME280;40181;51.560;13.000;2023-03-14T04:26:14;98385.81;;;10.19;91.90
54270;BME280;40181;51.560;13.000;2023-03-14T04:28:45;98383.09;;;10.23;91.91
54270;BME280;40181;51.560;13.000;2023-03-14T04:31:16;98371.72;;;10.23;92.15
54270;BME280;40181;51.560;13.000;2023-03-14T04:33:46;98365.09;;;10.05;92.79
54270;BME280;40181;51.560;13.000;2023-03-14T04:36:15;98370.25;;;10.08;92.50
54270;BME280;40181;51.560;13.000;2023-03-14T04:38:44;98365.81;;;10.13;92.65
54270;BME280;40181;51.560;13.000;2023-03-14T04:41:13;98371.28;;;10.01;92.88
54270;BME280;40181;51.560;13.000;2023-03-14T04:43:45;98360.47;;;10.16;92.75
54270;BME280;40181;51.560;13.000;2023-03-14T04:46:14;98352.00;;;10.03;93.02
54270;BME280;40181;51.560;13.000;2023-03-14T04:48:43;98354.63;;;10.03;93.33
54270;BME280;40181;51.560;13.000;2023-03-14T04:51:28;98353.81;;;9.98;93.04
54270;BME280;40181;51.560;13.000;2023-03-14T04:53:57;98345.78;;;10.07;93.08
54270;BME280;40181;51.560;13.000;2023-03-14T04:56:26;98335.34;;;10.04;93.05
54270;BME280;40181;51.560;13.000;2023-03-14T04:58:58;98358.03;;;10.07;92.98
54270;BME280;40181;51.560;13.000;2023-03-14T05:01:27;98354.78;;;9.94;93.19
54270;BME280;40181;51.560;13.000;2023-03-14T05:03:56;98351.47;;;9.86;93.21
54270;BME280;40181;51.560;13.000;2023-03-14T05:06:25;98346.94;;;9.94;93.24
54270;BME280;40181;51.560;13.000;2023-03-14T05:08:54;98344.28;;;9.95;92.90
54270;BME280;40181;51.560;13.000;2023-03-14T05:11:23;98354.63;;;10.03;92.51
54270;BME280;40181;51.560;13.000;2023-03-14T05:13:52;98356.50;;;9.96;92.54
54270;BME280;40181;51.560;13.000;2023-03-14T05:16:24;98349.47;;;9.99;92.58
54270;BME280;40181;51.560;13.000;2023-03-14T05:18:54;98361.94;;;9.87;92.42
54270;BME280;40181;51.560;13.000;2023-03-14T05:21:23;98350.31;;;9.99;91.87
54270;BME280;40181;51.560;13.000;2023-03-14T05:23:52;98356.53;;;9.93;91.75
54270;BME280;40181;51.560;13.000;2023-03-14T05:26:21;98351.19;;;10.00;91.58
54270;BME280;40181;51.560;13.000;2023-03-14T05:28:50;98337.88;;;10.09;90.90
54270;BME280;40181;51.560;13.000;2023-03-14T05:31:20;98343.31;;;10.00;91.53
54270;BME280;40181;51.560;13.000;2023-03-14T05:33:51;98340.78;;;9.95;91.21
54270;BME280;40181;51.560;13.000;2023-03-14T05:36:20;98328.56;;;9.94;91.10
54270;BME280;40181;51.560;13.000;2023-03-14T05:38:49;98335.44;;;10.00;90.48
54270;BME280;40181;51.560;13.000;2023-03-14T05:41:18;98327.50;;;10.03;90.41
54270;BME280;40181;51.560;13.000;2023-03-14T05:43:47;98323.34;;;9.92;91.16
54270;BME280;40181;51.560;13.000;2023-03-14T05:46:16;98325.78;;;10.02;91.17
54270;BME280;40181;51.560;13.000;2023-03-14T05:48:45;98327.75;;;9.90;90.87
54270;BME280;40181;51.560;13.000;2023-03-14T05:51:17;98324.06;;;9.99;90.96
54270;BME280;40181;51.560;13.000;2023-03-14T05:53:46;98322.44;;;9.95;90.99
54270;BME280;40181;51.560;13.000;2023-03-14T05:56:15;98327.69;;;9.93;91.15
54270;BME280;40181;51.560;13.000;2023-03-14T05:58:44;98316.22;;;9.99;90.51
54270;BME280;40181;51.560;13.000;2023-03-14T06:01:13;98321.72;;;9.87;90.70
54270;BME280;40181;51.560;13.000;2023-03-14T06:03:42;98324.16;;;9.96;90.28
54270;BME280;40181;51.560;13.000;2023-03-14T06:06:12;98341.84;;;9.86;90.31
54270;BME280;40181;51.560;13.000;2023-03-14T06:08:44;98344.22;;;9.97;89.91
54270;BME280;40181;51.560;13.000;2023-03-14T06:11:13;98343.59;;;9.86;90.33
54270;BME280;40181;51.560;13.000;2023-03-14T06:13:42;98338.31;;;9.87;90.08
54270;BME280;40181;51.560;13.000;2023-03-14T06:16:12;98338.19;;;9.93;89.96
54270;BME280;40181;51.560;13.000;2023-03-14T06:18:41;98335.63;;;9.90;89.83
54270;BME280;40181;51.560;13.000;2023-03-14T06:21:11;98332.03;;;9.94;89.81
54270;BME280;40181;51.560;13.000;2023-03-14T06:23:40;98341.78;;;9.89;90.11
54270;BME280;40181;51.560;13.000;2023-03-14T06:26:12;98333.88;;;9.91;90.01
54270;BME280;40181;51.560;13.000;2023-03-14T06:28:41;98342.53;;;9.94;89.25
54270;BME280;40181;51.560;13.000;2023-03-14T06:31:10;98342.50;;;9.96;89.97
54270;BME280;40181;51.560;13.000;2023-03-14T06:33:39;98348.81;;;9.87;89.67
54270;BME280;40181;51.560;13.000;2023-03-14T06:36:09;98344.19;;;10.00;89.63
54270;BME280;40181;51.560;13.000;2023-03-14T06:38:38;98363.56;;;9.93;89.37
54270;BME280;40181;51.560;13.000;2023-03-14T06:41:10;98359.84;;;10.03;89.68
54270;BME280;40181;51.560;13.000;2023-03-14T06:43:39;98360.59;;;10.10;89.66
54270;BME280;40181;51.560;13.000;2023-03-14T06:46:09;98371.06;;;10.12;89.38
54270;BME280;40181;51.560;13.000;2023-03-14T06:48:38;98378.03;;;10.14;88.86
54270;BME280;40181;51.560;13.000;2023-03-14T06:51:07;98369.28;;;10.14;89.03
54270;BME280;40181;51.560;13.000;2023-03-14T06:53:36;98374.53;;;10.12;88.05
54270;BME280;40181;51.560;13.000;2023-03-14T06:56:06;98376.44;;;10.05;88.31
54270;BME280;40181;51.560;13.000;2023-03-14T06:58:38;98379.75;;;10.14;88.06
54270;BME280;40181;51.560;13.000;2023-03-14T07:01:17;98387.38;;;10.26;88.20
54270;BME280;40181;51.560;13.000;2023-03-14T07:03:49;98372.91;;;10.06;88.44
54270;BME280;40181;51.560;13.000;2023-03-14T07:06:19;98351.78;;;10.14;88.24
54270;BME280;40181;51.560;13.000;2023-03-14T07:08:48;98359.06;;;10.00;88.73
54270;BME280;40181;51.560;13.000;2023-03-14T07:11:20;98340.59;;;10.04;88.75
54270;BME280;40181;51.560;13.000;2023-03-14T07:13:49;98342.41;;;10.01;88.64
54270;BME280;40181;51.560;13.000;2023-03-14T07:16:18;98346.75;;;10.02;88.68
54270;BME280;40181;51.560;13.000;2023-03-14T07:18:48;98342.22;;;10.10;88.59
54270;BME280;40181;51.560;13.000;2023-03-14T07:21:17;98346.47;;;10.16;87.99
54270;BME280;40181;51.560;13.000;2023-03-14T07:23:46;98352.44;;;10.24;87.99
54270;BME280;40181;51.560;13.000;2023-03-14T07:26:15;98355.97;;;10.21;88.19
54270;BME280;40181;51.560;13.000;2023-03-14T07:28:47;98362.03;;;10.25;87.68
54270;BME280;40181;51.560;13.000;2023-03-14T07:31:16;98371.50;;;10.34;86.90
54270;BME280;40181;51.560;13.000;2023-03-14T07:33:45;98379.22;;;10.43;87.32
54270;BME280;40181;51.560;13.000;2023-03-14T07:36:14;98385.34;;;10.42;86.41
54270;BME280;40181;51.560;13.000;2023-03-14T07:38:43;98392.22;;;10.48;86.28
54270;BME280;40181;51.560;13.000;2023-03-14T07:41:13;98383.53;;;10.46;86.52
54270;BME280;40181;51.560;13.000;2023-03-14T07:43:42;98390.72;;;10.34;86.65
54270;BME280;40181;51.560;13.000;2023-03-14T07:46:14;98378.22;;;10.49;86.82
54270;BME280;40181;51.560;13.000;2023-03-14T07:48:43;98381.66;;;10.51;86.82
54270;BME280;40181;51.560;13.000;2023-03-14T07:51:12;98376.63;;;10.40;86.82
54270;BME280;40181;51.560;13.000;2023-03-14T07:53:41;98373.06;;;10.43;86.17
54270;BME280;40181;51.560;13.000;2023-03-14T07:56:11;98378.31;;;10.43;86.93
54270;BME280;40181;51.560;13.000;2023-03-14T07:58:40;98369.50;;;10.47;86.44
54270;BME280;40181;51.560;13.000;2023-03-14T08:01:09;98365.00;;;10.52;86.20
54270;BME280;40181;51.560;13.000;2023-03-14T08:03:41;98374.66;;;10.51;85.53
54270;BME280;40181;51.560;13.000;2023-03-14T08:06:10;98364.19;;;10.50;84.95
54270;BME280;40181;51.560;13.000;2023-03-14T08:08:39;98368.50;;;10.52;85.08
54270;BME280;40181;51.560;13.000;2023-03-14T08:11:09;98362.06;;;10.66;85.36
54270;BME280;40181;51.560;13.000;2023-03-14T08:13:38;98352.44;;;10.67;84.63
54270;BME280;40181;51.560;13.000;2023-03-14T08:16:08;98358.63;;;10.64;84.88
54270;BME280;40181;51.560;13.000;2023-03-14T08:18:37;98366.47;;;10.65;84.67
54270;BME280;40181;51.560;13.000;2023-03-14T08:21:09;98364.78;;;10.63;84.48
54270;BME280;40181;51.560;13.000;2023-03-14T08:23:38;98356.69;;;10.72;83.73
54270;BME280;40181;51.560;13.000;2023-03-14T08:26:08;98345.16;;;10.79;83.04
54270;BME280;40181;51.560;13.000;2023-03-14T08:28:37;98352.56;;;11.00;83.21
54270;BME280;40181;51.560;13.000;2023-03-14T08:31:06;98350.91;;;10.96;82.59
54270;BME280;40181;51.560;13.000;2023-03-14T08:33:35;98346.25;;;11.07;81.86
54270;BME280;40181;51.560;13.000;2023-03-14T08:36:08;98352.13;;;11.18;82.03
54270;BME280;40181;51.560;13.000;2023-03-14T08:38:37;98350.31;;;11.20;81.62
54270;BME280;40181;51.560;13.000;2023-03-14T08:41:08;98342.63;;;11.13;80.77
54270;BME280;40181;51.560;13.000;2023-03-14T08:43:37;98346.47;;;11.34;81.72
54270;BME280;40181;51.560;13.000;2023-03-14T08:46:07;98345.94;;;11.21;80.34
54270;BME280;40181;51.560;13.000;2023-03-14T08:48:36;98340.38;;;11.32;81.41
54270;BME280;40181;51.560;13.000;2023-03-14T08:51:10;98353.41;;;11.37;79.99
54270;BME280;40181;51.560;13.000;2023-03-14T08:53:40;98352.56;;;11.36;80.71
54270;BME280;40181;51.560;13.000;2023-03-14T08:56:10;98334.84;;;11.44;80.13
54270;BME280;40181;51.560;13.000;2023-03-14T08:58:40;98350.06;;;11.31;79.87
54270;BME280;40181;51.560;13.000;2023-03-14T09:01:10;98355.00;;;11.44;80.44
54270;BME280;40181;51.560;13.000;2023-03-14T09:03:39;98337.38;;;11.47;79.71
54270;BME280;40181;51.560;13.000;2023-03-14T09:06:11;98338.97;;;11.53;79.96
54270;BME280;40181;51.560;13.000;2023-03-14T09:08:43;98350.53;;;11.47;79.59
54270;BME280;40181;51.560;13.000;2023-03-14T09:11:13;98346.22;;;11.43;78.64
54270;BME280;40181;51.560;13.000;2023-03-14T09:13:44;98348.78;;;11.48;78.38
54270;BME280;40181;51.560;13.000;2023-03-14T09:16:14;98359.28;;;11.48;78.80
54270;BME280;40181;51.560;13.000;2023-03-14T09:18:43;98355.75;;;11.49;78.21
54270;BME280;40181;51.560;13.000;2023-03-14T09:21:15;98347.56;;;11.60;76.52
54270;BME280;40181;51.560;13.000;2023-03-14T09:23:44;98350.38;;;11.54;76.91
54270;BME280;40181;51.560;13.000;2023-03-14T09:26:14;98358.31;;;11.51;76.93
54270;BME280;40181;51.560;13.000;2023-03-14T09:28:43;98359.16;;;11.53;76.48
54270;BME280;40181;51.560;13.000;2023-03-14T09:31:13;98368.00;;;11.50;76.29
54270;BME280;40181;51.560;13.000;2023-03-14T09:33:42;98356.22;;;11.63;76.46
54270;BME280;40181;51.560;13.000;2023-03-14T09:36:14;98360.53;;;11.68;76.74
54270;BME280;40181;51.560;13.000;2023-03-14T09:38:43;98363.03;;;11.72;77.01
54270;BME280;40181;51.560;13.000;2023-03-14T09:41:15;98358.03;;;11.63;76.63
54270;BME280;40181;51.560;13.000;2023-03-14T09:43:53;98354.53;;;11.61;76.75
54270;BME280;40181;51.560;13.000;2023-03-14T09:46:29;98349.16;;;11.66;77.57
54270;BME280;40181;51.560;13.000;2023-03-14T09:49:00;98355.25;;;11.68;77.69
54270;BME280;40181;51.560;13.000;2023-03-14T09:51:33;98362.13;;;11.73;77.06
54270;BME280;40181;51.560;13.000;2023-03-14T09:54:05;98370.88;;;11.74;77.39
54270;BME280;40181;51.560;13.000;2023-03-14T09:56:36;98373.13;;;11.55;76.55
54270;BME280;40181;51.560;13.000;2023-03-14T09:59:09;98369.59;;;11.56;75.44
54270;BME280;40181;51.560;13.000;2023-03-14T10:01:43;98364.13;;;11.63;75.17
54270;BME280;40181;51.560;13.000;2023-03-14T10:04:15;98378.16;;;11.64;74.59
54270;BME280;40181;51.560;13.000;2023-03-14T10:06:48;98372.69;;;11.72;74.96
54270;BME280;40181;51.560;13.000;2023-03-14T10:09:19;98358.88;;;11.63;74.85
54270;BME280;40181;51.560;13.000;2023-03-14T10:11:55;98372.06;;;11.62;74.32
54270;BME280;40181;51.560;13.000;2023-03-14T10:14:30;98361.38;;;11.68;74.36
54270;BME280;40181;51.560;13.000;2023-03-14T10:17:06;98354.47;;;11.64;74.70
54270;BME280;40181;51.560;13.000;2023-03-14T10:19:36;98366.06;;;11.57;74.31
54270;BME280;40181;51.560;13.000;2023-03-14T10:22:13;98363.16;;;11.68;74.63
54270;BME280;40181;51.560;13.000;2023-03-14T10:24:45;98364.22;;;11.60;74.40
54270;BME280;40181;51.560;13.000;2023-03-14T10:27:19;98366.72;;;11.65;74.83
54270;BME280;40181;51.560;13.000;2023-03-14T10:29:54;98361.56;;;11.62;74.64
54270;BME280;40181;51.560;13.000;2023-03-14T10:32:29;98359.50;;;11.73;75.11
54270;BME280;40181;51.560;13.000;2023-03-14T10:35:22;98359.63;;;11.69;74.75
54270;BME280;40181;51.560;13.000;2023-03-14T10:37:57;98353.66;;;11.62;74.85
54270;BME280;40181;51.560;13.000;2023-03-14T10:40:30;98356.00;;;11.73;74.04
54270;BME280;40181;51.560;13.000;2023-03-14T10:43:01;98350.53;;;11.81;74.39
54270;BME280;40181;51.560;13.000;2023-03-14T10:45:36;98347.19;;;11.74;74.73
54270;BME280;40181;51.560;13.000;2023-03-14T10:48:22;98349.63;;;11.82;74.29
54270;BME280;40181;51.560;13.000;2023-03-14T10:50:55;98363.88;;;11.73;74.00
54270;BME280;40181;51.560;13.000;2023-03-14T10:53:33;98361.44;;;11.67;73.36
54270;BME280;40181;51.560;13.000;2023-03-14T10:56:09;98343.72;;;11.73;74.05
54270;BME280;40181;51.560;13.000;2023-03-14T10:58:42;98347.50;;;11.63;74.60
54270;BME280;40181;51.560;13.000;2023-03-14T11:01:22;98355.16;;;11.71;74.46
54270;BME280;40181;51.560;13.000;2023-03-14T11:04:07;98360.28;;;11.77;74.16
54270;BME280;40181;51.560;13.000;2023-03-14T11:06:47;98375.97;;;11.80;74.71
54270;BME280;40181;51.560;13.000;2023-03-14T11:09:24;98372.09;;;11.60;75.48
54270;BME280;40181;51.560;13.000;2023-03-14T11:12:03;98376.34;;;11.66;75.09
54270;BME280;40181;51.560;13.000;2023-03-14T11:14:50;98381.75;;;11.60;76.44
54270;BME280;40181;51.560;13.000;2023-03-14T11:17:29;98383.16;;;11.39;76.81
54270;BME280;40181;51.560;13.000;2023-03-14T11:20:17;98381.38;;;11.41;78.10
54270;BME280;40181;51.560;13.000;2023-03-14T11:23:01;98370.13;;;11.34;78.85
54270;BME280;40181;51.560;13.000;2023-03-14T11:25:43;98371.44;;;11.52;79.09
54270;BME280;40181;51.560;13.000;2023-03-14T11:28:25;98365.25;;;11.55;79.32
54270;BME280;40181;51.560;13.000;2023-03-14T11:31:04;98365.94;;;11.61;78.76
54270;BME280;40181;51.560;13.000;2023-03-14T11:33:46;98363.19;;;11.66;78.36
54270;BME280;40181;51.560;13.000;2023-03-14T11:36:21;98361.44;;;11.67;77.30
54270;BME280;40181;51.560;13.000;2023-03-14T11:38:56;98346.59;;;11.64;77.90
54270;BME280;40181;51.560;13.000;2023-03-14T11:41:32;98342.28;;;11.60;78.04
54270;BME280;40181;51.560;13.000;2023-03-14T11:44:10;98363.44;;;11.57;75.18
54270;BME280;40181;51.560;13.000;2023-03-14T11:46:48;98360.47;;;11.69;74.54
54270;BME280;40181;51.560;13.000;2023-03-14T11:49:29;98356.75;;;11.78;74.95
54270;BME280;40181;51.560;13.000;2023-03-14T11:52:03;98353.03;;;11.85;74.89
54270;BME280;40181;51.560;13.000;2023-03-14T11:54:40;98355.81;;;11.81;74.61
54270;BME280;40181;51.560;13.000;2023-03-14T11:57:19;98347.91;;;11.81;74.62
54270;BME280;40181;51.560;13.000;2023-03-14T11:59:52;98353.97;;;11.83;73.82
54270;BME280;40181;51.560;13.000;2023-03-14T12:02:31;98341.69;;;11.83;73.13
54270;BME280;40181;51.560;13.000;2023-03-14T12:05:25;98340.34;;;12.00;72.63
54270;BME280;40181;51.560;13.000;2023-03-14T12:11:20;98342.94;;;12.01;73.07
54270;BME280;40181;51.560;13.000;2023-03-14T12:14:03;98355.34;;;11.96;72.64
54270;BME280;40181;51.560;13.000;2023-03-14T12:16:46;98342.13;;;11.99;73.45
54270;BME280;40181;51.560;13.000;2023-03-14T12:19:37;98345.88;;;11.90;74.47
54270;BME280;40181;51.560;13.000;2023-03-14T12:22:17;98345.06;;;11.88;75.45
54270;BME280;40181;51.560;13.000;2023-03-14T12:25:00;98343.44;;;11.84;75.66
54270;BME280;40181;51.560;13.000;2023-03-14T12:27:44;98338.50;;;11.70;76.68
54270;BME280;40181;51.560;13.000;2023-03-14T12:30:25;98333.09;;;12.10;76.08
54270;BME280;40181;51.560;13.000;2023-03-14T12:33:11;98321.75;;;12.38;74.66
54270;BME280;40181;51.560;13.000;2023-03-14T12:36:18;98326.84;;;12.72;74.72
54270;BME280;40181;51.560;13.000;2023-03-14T12:39:19;98318.75;;;12.50;76.13
54270;BME280;40181;51.560;13.000;2023-03-14T12:41:52;98331.19;;;12.45;76.33
54270;BME280;40181;51.560;13.000;2023-03-14T12:44:39;98329.13;;;12.55;76.08
54270;BME280;40181;51.560;13.000;2023-03-14T12:50:36;98323.72;;;12.59;75.68
54270;BME280;40181;51.560;13.000;2023-03-14T12:57:04;98316.00;;;12.25;75.69
54270;BME280;40181;51.560;13.000;2023-03-14T12:59:40;98306.78;;;12.40;76.91
54270;BME280;40181;51.560;13.000;2023-03-14T13:02:26;98309.56;;;12.05;76.89
54270;BME280;40181;51.560;13.000;2023-03-14T13:05:05;98299.59;;;12.15;76.95
54270;BME280;40181;51.560;13.000;2023-03-14T13:08:11;98299.88;;;12.06;77.02
54270;BME280;40181;51.560;13.000;2023-03-14T13:10:45;98313.81;;;12.09;78.40
54270;BME280;40181;51.560;13.000;2023-03-14T13:13:19;98319.38;;;11.98;78.41
54270;BME280;40181;51.560;13.000;2023-03-14T13:15:54;98299.88;;;12.06;78.06
54270;BME280;40181;51.560;13.000;2023-03-14T13:18:29;98313.22;;;11.98;78.38
54270;BME280;40181;51.560;13.000;2023-03-14T13:21:05;98297.34;;;12.01;78.07
54270;BME280;40181;51.560;13.000;2023-03-14T13:23:40;98299.06;;;12.03;77.25
54270;BME280;40181;51.560;13.000;2023-03-14T13:26:13;98305.00;;;12.10;77.38
54270;BME280;40181;51.560;13.000;2023-03-14T13:28:42;98294.97;;;12.23;77.50